Latest Weather Observations for Williamson

IDQ60801

Issued at 7:02 am EST Friday 12 February 2016 (issued every 30 minutes, with the page automatically refreshed every 10 minutes)

About weather observations | Map of weather stations | Latest weather observations for QLD | Other Formats
Station Details ID: 033195 Name: WILLIAMSON Lat: -22.47 Lon: 150.18 Height: 27.6 m
Data from the previous 72 hours. | See also: Recent months at Williamson
Date/Time
EST
Temp
°C
App
Temp
°C
Dew
Point
Rel
Hum
%
Delta-T
°C
Wind Press
QNH
hPa
Press
MSL
hPa
Rain
since 9 am
mm
Dir
 
Spd
km/h
Gust
km/h
Spd
kts
Gust
kts
12/07:00am 23.6 24.5 19.3 77 2.8 SSW 13 19 7 10 1010.4 1010.2 0.0
12/06:30am 23.3 24.5 19.9 81 2.2 S 13 17 7 9 1010.1 1009.9 0.0
12/06:00am 23.1 24.3 19.9 82 2.1 S 13 19 7 10 1009.9 1009.7 0.0
12/05:30am 23.5 23.9 19.8 80 2.4 S 17 24 9 13 1009.8 1009.6 0.0
12/05:00am 23.7 24.2 20.0 80 2.4 SSW 17 24 9 13 1009.6 1009.4 0.0
12/04:30am 23.8 25.2 20.3 81 2.3 SSW 13 19 7 10 1009.2 1009.0 0.0
12/04:00am 24.1 26.9 20.4 80 2.4 S 6 11 3 6 1009.1 1008.9 0.0
12/03:30am 24.1 26.4 20.6 81 2.3 S 9 13 5 7 1009.0 1008.8 0.0
12/03:00am 24.5 25.9 20.4 78 2.7 S 13 17 7 9 1009.0 1008.8 0.0
12/02:30am 25.0 27.5 20.3 75 3.1 SSE 7 13 4 7 1009.0 1008.8 0.0
12/02:00am 25.3 27.4 20.1 73 3.4 SSE 9 17 5 9 1009.3 1009.1 0.0
12/01:30am 25.4 27.1 20.2 73 3.4 SSE 11 19 6 10 1009.5 1009.3 0.0
12/01:00am 25.5 27.4 20.5 74 3.3 SSE 11 19 6 10 1009.9 1009.7 0.0
12/12:30am 25.4 28.3 20.6 75 3.1 SSE 6 11 3 6 1010.1 1009.9 0.0
12/12:00am 24.7 28.8 20.8 79 2.6 CALM 0 6 0 3 1010.2 1010.0 0.0
 
Date/Time
EST
Temp
°C
App
Temp
°C
Dew
Point
Rel
Hum
%
Delta-T
°C
Wind Press
QNH
hPa
Press
MSL
hPa
Rain
since 9 am
mm
Dir
 
Spd
km/h
Gust
km/h
Spd
kts
Gust
kts
11/11:30pm 25.1 28.8 19.9 73 3.4 CALM 0 6 0 3 1010.3 1010.1 0.0
11/11:00pm 25.5 28.1 20.1 72 3.5 SSE 6 7 3 4 1010.4 1010.2 0.0
11/10:30pm 26.2 27.5 20.1 69 4.0 ESE 13 20 7 11 1010.3 1010.1 0.0
11/10:00pm 26.3 27.6 20.2 69 4.0 ESE 13 22 7 12 1010.2 1010.0 0.0
11/09:30pm 26.3 27.4 20.4 70 3.9 ESE 15 20 8 11 1010.5 1010.3 0.0
11/09:00pm 26.0 28.5 20.3 71 3.7 SE 7 13 4 7 1010.5 1010.3 0.0
11/08:30pm 26.1 28.6 20.2 70 3.9 ESE 7 17 4 9 1010.3 1010.1 0.0
11/08:00pm 26.1 28.5 20.0 69 4.0 ESE 7 11 4 6 1010.0 1009.8 0.0
11/07:30pm 26.4 28.3 19.8 67 4.3 E 9 11 5 6 1009.5 1009.3 0.0
11/07:00pm 27.0 28.3 19.4 63 4.9 ESE 11 19 6 10 1009.3 1009.1 0.0
11/06:30pm 27.8 28.9 18.8 58 5.8 ESE 11 19 6 10 1008.9 1008.7 0.0
11/06:00pm 28.6 29.1 18.4 54 6.5 ESE 13 20 7 11 1008.7 1008.5 0.0
11/05:30pm 29.0 29.6 18.7 53 6.6 E 13 22 7 12 1008.3 1008.1 0.0
11/05:00pm 29.3 29.6 18.7 52 6.8 ESE 15 28 8 15 1008.0 1007.8 0.0
11/04:30pm 29.9 29.2 17.4 47 7.9 ESE 17 24 9 13 1007.8 1007.6 0.0
11/04:00pm 30.4 29.9 17.8 46 8.1 E 17 28 9 15 1007.5 1007.3 0.0
11/03:30pm 30.2 30.8 18.6 49 7.5 SE 13 22 7 12 1007.5 1007.3 0.0
11/03:00pm 30.0 30.5 18.4 49 7.5 E 13 24 7 13 1007.6 1007.4 0.0
11/02:30pm 30.5 31.6 17.9 47 8.1 ESE 9 17 5 9 1007.8 1007.6 0.0
11/02:00pm 30.4 31.3 17.5 46 8.2 SSE 9 17 5 9 1008.2 1008.0 0.0
11/01:30pm 29.7 30.3 17.8 48 7.6 E 11 19 6 10 1008.4 1008.2 0.0
11/01:00pm 29.6 29.2 17.1 47 7.9 E 15 22 8 12 1008.8 1008.6 0.0
11/12:30pm 30.6 31.3 18.0 47 8.1 E 11 19 6 10 1009.1 1008.9 0.0
11/12:00pm 30.4 30.7 17.8 46 8.1 SE 13 24 7 13 1009.4 1009.2 0.0
11/11:30am 29.4 29.3 17.9 50 7.3 SSE 15 26 8 14 1009.8 1009.6 0.0
11/11:00am 29.3 29.3 18.1 51 7.2 SSE 15 24 8 13 1010.3 1010.1 0.0
11/10:30am 28.5 29.1 18.6 55 6.4 SE 13 20 7 11 1010.6 1010.4 0.0
11/10:00am 28.1 28.4 18.8 57 6.0 SE 15 28 8 15 1010.6 1010.4 0.0
11/09:30am 27.8 28.0 19.3 60 5.5 SSE 17 28 9 15 1010.5 1010.3 0.0
11/09:00am 26.7 27.4 20.5 69 4.1 S 17 24 9 13 1010.6 1010.4 0.0
11/08:30am 26.2 27.3 20.5 71 3.7 S 15 24 8 13 1010.6 1010.4 0.0
11/08:00am 25.4 26.4 20.2 73 3.4 S 15 22 8 12 1010.6 1010.4 0.0
11/07:30am 24.7 25.4 20.4 77 2.8 S 17 24 9 13 1010.4 1010.2 0.0
11/07:00am 23.9 24.9 20.2 80 2.4 S 15 20 8 11 1010.3 1010.1 0.0
11/06:30am 23.0 24.1 20.5 86 1.6 S 15 19 8 10 1009.9 1009.7 0.0
11/06:00am 22.8 24.5 20.9 89 1.2 S 13 17 7 9 1009.7 1009.5 0.0
11/05:30am 22.9 24.7 21.2 90 1.1 S 13 19 7 10 1009.4 1009.2 0.0
11/05:00am 22.9 24.9 20.8 88 1.4 S 11 15 6 8 1009.1 1008.9 0.0
11/04:30am 23.6 25.9 19.9 80 2.4 S 7 11 4 6 1008.9 1008.7 0.0
11/04:00am 24.1 26.0 19.8 77 2.8 SE 9 17 5 9 1008.7 1008.5 0.0
11/03:30am 23.1 26.3 21.2 89 1.2 S 6 9 3 5 1008.7 1008.5 0.0
11/03:00am 23.4 26.1 21.3 88 1.4 S 9 13 5 7 1008.8 1008.6 0.0
11/02:30am 23.4 26.5 21.1 87 1.5 S 6 9 3 5 1008.8 1008.6 0.0
11/02:00am 23.4 27.8 21.3 88 1.4 CALM 0 0 0 0 1008.9 1008.7 0.0
11/01:30am 23.6 28.0 21.3 87 1.5 CALM 0 0 0 0 1009.0 1008.8 0.0
11/01:00am 24.3 27.3 20.8 81 2.3 SSE 6 7 3 4 1009.2 1009.0 0.0
11/12:30am 24.3 28.3 20.6 80 2.4 CALM 0 0 0 0 1009.5 1009.3 0.0
11/12:00am 24.9 27.7 20.4 76 2.9 ESE 6 9 3 5 1009.9 1009.7 0.0
 
Date/Time
EST
Temp
°C
App
Temp
°C
Dew
Point
Rel
Hum
%
Delta-T
°C
Wind Press
QNH
hPa
Press
MSL
hPa
Rain
since 9 am
mm
Dir
 
Spd
km/h
Gust
km/h
Spd
kts
Gust
kts
10/11:30pm 25.4 28.0 20.4 74 3.3 ESE 7 15 4 8 1010.4 1010.2 0.0
10/11:00pm 25.6 27.4 20.4 73 3.4 ESE 11 19 6 10 1010.6 1010.4 0.0
10/10:30pm 25.7 27.1 20.3 72 3.5 ESE 13 22 7 12 1010.6 1010.4 0.0
10/10:00pm 25.7 27.6 20.5 73 3.4 ESE 11 19 6 10 1010.8 1010.6 0.0
10/09:30pm 25.9 27.8 20.5 72 3.5 ESE 11 22 6 12 1010.8 1010.6 0.0
10/09:00pm 25.8 27.2 20.4 72 3.5 ESE 13 20 7 11 1010.6 1010.4 0.0
10/08:30pm 26.0 27.8 20.3 71 3.7 ESE 11 17 6 9 1010.5 1010.3 0.0
10/08:00pm 26.2 27.7 19.8 68 4.2 ESE 11 19 6 10 1010.2 1010.0 0.0
10/07:30pm 26.4 28.2 19.5 66 4.5 ESE 9 11 5 6 1009.9 1009.7 0.0
10/07:00pm 27.0 28.7 19.4 63 4.9 ESE 9 15 5 8 1009.5 1009.3 0.0
10/06:30pm 27.8 28.5 18.8 58 5.8 ESE 13 26 7 14 1009.2 1009.0 0.0
10/06:00pm 28.7 29.4 18.8 55 6.4 ESE 13 20 7 11 1008.8 1008.6 0.0
10/05:30pm 29.3 29.2 17.8 50 7.3 ESE 15 22 8 12 1008.4 1008.2 0.0
10/05:00pm 29.9 30.4 18.3 49 7.5 ESE 13 26 7 14 1008.1 1007.9 0.0
10/04:30pm 29.8 29.2 17.6 48 7.8 E 17 24 9 13 1008.0 1007.8 0.0
10/04:00pm 30.1 29.9 17.5 46 8.0 E 15 28 8 15 1008.0 1007.8 0.0
10/03:30pm 29.6 30.1 18.4 51 7.2 E 13 20 7 11 1008.0 1007.8 0.0
10/03:00pm 29.4 29.2 18.5 52 7.0 E 17 24 9 13 1008.1 1007.9 0.0
10/02:30pm 29.2 29.7 18.3 51 7.0 ESE 13 19 7 10 1008.4 1008.2 0.0
10/02:00pm 28.9 29.2 18.7 54 6.6 E 15 22 8 12 1008.7 1008.5 0.0
10/01:30pm 29.4 29.7 17.9 50 7.3 SE 13 20 7 11 1009.0 1008.8 0.0
10/01:00pm 29.6 30.5 19.3 54 6.7 ESE 13 20 7 11 1009.2 1009.0 0.0
10/12:30pm 29.2 29.4 18.6 52 6.8 SE 15 24 8 13 1009.7 1009.5 0.0
10/12:00pm 29.6 30.4 19.0 53 6.9 SSE 13 22 7 12 1010.0 1009.8 0.0
10/11:30am 29.2 28.9 18.3 51 7.0 SE 17 26 9 14 1010.4 1010.2 0.0
10/11:00am 28.2 28.2 18.9 57 6.0 SE 17 26 9 14 1010.4 1010.2 0.0
10/10:30am 28.3 28.3 19.0 57 6.0 SSE 17 28 9 15 1010.7 1010.5 0.0
10/10:00am 27.6 27.8 18.6 58 5.8 SE 15 26 8 14 1010.9 1010.7 0.0
10/09:30am 27.0 27.6 18.6 60 5.4 SSE 13 24 7 13 1010.9 1010.7 0.0
10/09:00am 26.6 27.5 20.0 67 4.3 S 15 26 8 14 1010.9 1010.7 0.4
10/08:30am 25.1 25.1 19.0 69 3.9 S 17 30 9 16 1010.9 1010.7 0.4
10/08:00am 24.9 25.0 19.1 70 3.7 S 17 24 9 13 1011.0 1010.8 0.4
10/07:30am 23.9 23.9 19.0 74 3.1 S 17 22 9 12 1010.8 1010.6 0.4
10/07:00am 24.0 24.7 18.9 73 3.2 S 13 19 7 10 1010.6 1010.4 0.4
10/06:30am 23.1 23.9 19.1 78 2.5 S 13 22 7 12 1010.3 1010.1 0.4
10/06:00am 22.6 23.4 19.0 80 2.3 SSW 13 17 7 9 1010.0 1009.8 0.4
10/05:30am 22.8 23.6 19.0 79 2.4 S 13 17 7 9 1009.7 1009.5 0.4
10/05:00am 22.8 24.1 19.4 81 2.2 S 11 17 6 9 1009.2 1009.0 0.4
10/04:30am 22.9 24.5 19.1 79 2.4 S 9 15 5 8 1009.1 1008.9 0.4
10/04:00am 23.8 25.5 19.3 76 2.9 SSE 9 13 5 7 1009.1 1008.9 0.4
10/03:30am 24.3 26.1 18.7 71 3.6 SSE 7 13 4 7 1009.1 1008.9 0.4
10/03:00am 24.5 25.8 18.4 69 3.9 SE 9 19 5 10 1009.2 1009.0 0.4
10/02:30am 24.8 25.7 18.3 67 4.1 SE 11 19 6 10 1009.5 1009.3 0.4
10/02:00am 25.0 25.5 18.4 66 4.2 ESE 13 22 7 12 1009.7 1009.5 0.4
10/01:30am 25.2 25.2 18.2 65 4.4 ESE 15 22 8 12 1009.9 1009.7 0.4
10/01:00am 25.2 25.0 18.6 67 4.2 ESE 17 30 9 16 1010.2 1010.0 0.4
10/12:30am 25.3 25.5 18.5 66 4.3 ESE 15 30 8 16 1010.5 1010.3 0.4
10/12:00am 25.3 25.6 18.7 67 4.2 SE 15 32 8 17 1011.0 1010.8 0.4
 
Date/Time
EST
Temp
°C
App
Temp
°C
Dew
Point
Rel
Hum
%
Delta-T
°C
Wind Press
QNH
hPa
Press
MSL
hPa
Rain
since 9 am
mm
Dir
 
Spd
km/h
Gust
km/h
Spd
kts
Gust
kts
09/11:30pm 25.6 25.8 18.5 65 4.5 ESE 15 28 8 15 1011.2 1011.0 0.4
09/11:00pm 25.6 25.9 18.8 66 4.3 SE 15 28 8 15 1011.5 1011.3 0.4
09/10:30pm 25.7 26.6 19.3 67 4.1 ESE 13 22 7 12 1011.8 1011.6 0.4
09/10:00pm 25.9 27.2 19.3 67 4.3 SE 11 20 6 11 1012.1 1011.9 0.4
09/09:30pm 25.9 26.9 19.5 68 4.1 SE 13 26 7 14 1012.1 1011.9 0.4
09/09:00pm 25.9 27.3 19.5 68 4.1 ESE 11 19 6 10 1012.0 1011.8 0.4
09/08:30pm 26.0 26.6 19.4 67 4.3 SE 15 26 8 14 1011.9 1011.7 0.4
09/08:00pm 26.0 27.1 19.6 68 4.1 ESE 13 20 7 11 1011.9 1011.7 0.4
09/07:30pm 26.2 26.4 19.3 65 4.4 ESE 17 28 9 15 1011.8 1011.6 0.4
09/07:00pm 26.5 26.9 18.9 63 4.9 ESE 15 28 8 15 1011.6 1011.4 0.4
09/06:30pm 27.0 26.7 18.3 59 5.5 ESE 17 28 9 15 1011.1 1010.9 0.4
09/06:00pm 27.2 27.0 18.5 59 5.6 ESE 17 24 9 13 1010.8 1010.6 0.4
09/05:30pm 27.5 26.9 18.5 58 5.8 ESE 19 35 10 19 1010.5 1010.3 0.4
09/05:00pm 27.3 29.0 20.9 68 4.2 ESE 13 24 7 13 1010.2 1010.0 0.4
09/04:30pm 26.6 29.4 21.6 74 3.3 E 9 13 5 7 1010.1 1009.9 0.4
09/04:00pm 25.5 28.7 21.6 79 2.6 E 7 11 4 6 1010.4 1010.2 0.4
09/03:30pm 24.2 26.3 21.7 86 1.7 SE 13 26 7 14 1010.5 1010.3 0.4
09/03:00pm 25.9 27.2 20.9 74 3.3 SE 15 28 8 15 1010.6 1010.4 0.0
09/02:30pm 28.9 28.8 19.5 57 6.1 E 19 30 10 16 1010.2 1010.0 0.0
09/02:00pm 29.2 29.4 20.1 58 6.0 SE 19 30 10 16 1010.4 1010.2 0.0
09/01:30pm 29.2 29.8 19.5 56 6.3 SE 15 26 8 14 1010.6 1010.4 0.0
09/01:00pm 29.4 30.4 20.3 58 6.0 SE 15 24 8 13 1010.9 1010.7 0.0
09/12:30pm 28.9 29.7 20.6 61 5.5 SE 17 24 9 13 1011.1 1010.9 0.0
09/12:00pm 29.6 30.7 20.5 58 6.0 ESE 15 32 8 17 1011.3 1011.1 0.0
09/11:30am 29.1 29.2 20.0 58 6.0 SE 19 32 10 17 1011.6 1011.4 0.0
09/11:00am 29.4 30.1 19.7 56 6.4 E 15 24 8 13 1011.7 1011.5 0.0
09/10:30am 28.6 29.6 19.5 58 5.9 SE 13 22 7 12 1012.0 1011.8 0.0
09/10:00am 27.8 28.6 19.8 61 5.2 SSE 15 22 8 12 1012.2 1012.0 0.0
09/09:30am 27.8 28.9 20.4 64 4.9 S 15 24 8 13 1012.3 1012.1 0.0
09/09:00am 26.6 27.9 20.2 68 4.2 S 13 20 7 11 1012.4 1012.2 0.2
09/08:30am 26.4 28.0 20.7 71 3.8 S 13 20 7 11 1012.2 1012.0 0.2
09/08:00am 25.6 26.9 20.2 72 3.5 S 13 19 7 10 1012.2 1012.0 0.2
09/07:30am 25.0 27.2 20.3 75 3.1 SSW 9 13 5 7 1011.9 1011.7 0.2

Other Formats:

Comma delimited format used in spreadsheet applications
http://www.bom.gov.au/fwo/IDQ60801/IDQ60801.95370.axf

JavaScript Object Notation format (JSON) in row-major order
http://www.bom.gov.au/fwo/IDQ60801/IDQ60801.95370.json